Terminal Aerodrome Forecast
Issued by NWS

Home | Current Version | Previous Version | Text Only | Print | Product List | Glossary On
Versions: 1 2 3 4 5 6 7 8 9 10 11 12 13 14 15 16 17
000
FTUS43 KAPX 231408 AAA
TAFPLN
TAF AMD
KPLN 231408Z 2314/2412 15003KT 1/4SM FG OVC002 WS015/22030KT
     FM231600 17006KT 3/4SM BR OVC006 WS015/21030KT
      TEMPO 2316/2319 1/2SM FG OVC005
     FM240200 12004KT 3SM RA BR OVC006 WS015/18028KT=

USA.gov is the U.S. government's official web portal to all federal, state and local government web resources and services.